createdAt,value
2018-01-28T00:00:18.747Z,11.53
2018-01-28T00:02:45.872Z,9.80
2018-01-28T00:05:12.236Z,8.10
2018-01-28T00:07:39.455Z,9.97
2018-01-28T00:10:06.196Z,11.40
2018-01-28T00:12:33.367Z,12.13
2018-01-28T00:14:59.708Z,10.43
2018-01-28T00:17:26.832Z,9.40
2018-01-28T00:19:53.218Z,13.00
2018-01-28T00:22:19.589Z,14.70
2018-01-28T00:24:45.998Z,12.00
2018-01-28T00:27:12.405Z,11.70
2018-01-28T00:29:38.786Z,13.40
2018-01-28T00:32:06.565Z,17.07
2018-01-28T00:34:33.077Z,11.83
2018-01-28T00:36:59.455Z,13.60
2018-01-28T00:39:26.534Z,15.53
2018-01-28T00:41:52.900Z,7.00
2018-01-28T00:44:19.272Z,12.10
2018-01-28T00:46:45.644Z,10.80
2018-01-28T00:49:12.728Z,12.37
2018-01-28T00:51:39.090Z,12.70
2018-01-28T00:54:05.815Z,11.40
2018-01-28T00:56:32.180Z,13.00
2018-01-28T00:58:58.539Z,9.20
2018-01-28T01:01:24.969Z,9.70
2018-01-28T01:03:52.046Z,10.80
2018-01-28T01:06:18.405Z,8.50
2018-01-28T01:08:44.768Z,12.23
2018-01-28T01:11:11.857Z,12.27
2018-01-28T01:13:38.275Z,16.83
2018-01-28T01:16:05.415Z,9.20
2018-01-28T01:18:32.527Z,7.67
2018-01-28T01:20:58.867Z,9.93
2018-01-28T01:23:25.222Z,10.27
2018-01-28T01:25:51.551Z,7.20
2018-01-28T01:28:17.903Z,10.53
2018-01-28T01:30:44.298Z,9.77
2018-01-28T01:33:10.645Z,11.07
2018-01-28T01:35:36.990Z,5.60
2018-01-28T01:38:03.746Z,10.90
2018-01-28T01:40:30.106Z,9.30
2018-01-28T01:42:56.450Z,11.53
2018-01-28T01:45:22.842Z,7.10
2018-01-28T01:47:49.166Z,8.87
2018-01-28T01:50:15.542Z,7.53
2018-01-28T01:52:41.945Z,8.50
2018-01-28T01:55:08.347Z,19.93
2018-01-28T01:57:34.691Z,7.50
2018-01-28T02:00:01.047Z,7.63
2018-01-28T02:02:27.411Z,9.70
2018-01-28T02:04:53.787Z,8.00
2018-01-28T02:07:20.137Z,8.50
2018-01-28T02:09:46.486Z,11.03
2018-01-28T02:12:13.594Z,7.50
2018-01-28T02:14:39.978Z,8.30
2018-01-28T02:17:06.307Z,8.47
2018-01-28T02:19:33.422Z,10.60
2018-01-28T02:21:59.755Z,11.90
2018-01-28T02:24:26.118Z,8.27
2018-01-28T02:26:52.495Z,11.07
2018-01-28T02:29:18.824Z,5.60
2018-01-28T02:31:45.163Z,10.23
2018-01-28T02:34:11.510Z,7.80
2018-01-28T02:36:37.827Z,7.63
2018-01-28T02:39:05.886Z,8.17
2018-01-28T02:41:32.979Z,9.60
2018-01-28T02:44:00.119Z,10.17
2018-01-28T02:46:27.192Z,6.60
2018-01-28T02:48:53.530Z,6.67
2018-01-28T02:51:19.880Z,9.90
2018-01-28T02:53:46.198Z,8.13
2018-01-28T02:56:12.522Z,12.87
2018-01-28T02:58:38.846Z,12.00
2018-01-28T03:01:05.475Z,6.13
2018-01-28T03:03:31.810Z,10.30
2018-01-28T03:05:58.174Z,8.67
2018-01-28T03:08:24.515Z,9.50
2018-01-28T03:10:50.862Z,8.37
2018-01-28T03:13:17.207Z,7.43
2018-01-28T03:15:43.550Z,8.73
2018-01-28T03:18:09.882Z,7.40
2018-01-28T03:20:37.007Z,10.87
2018-01-28T03:23:03.692Z,8.97
2018-01-28T03:25:30.050Z,7.17
2018-01-28T03:27:56.423Z,9.00
2018-01-28T03:30:23.511Z,8.00
2018-01-28T03:32:50.611Z,6.63
2018-01-28T03:35:16.958Z,8.10
2018-01-28T03:37:43.330Z,7.23
2018-01-28T03:40:09.662Z,9.87
2018-01-28T03:42:36.046Z,6.40
2018-01-28T03:45:02.649Z,10.00
2018-01-28T03:47:28.983Z,9.20
2018-01-28T03:49:55.329Z,7.23
2018-01-28T03:52:21.658Z,8.10
2018-01-28T03:54:48.003Z,7.60
2018-01-28T03:57:14.324Z,7.20
2018-01-28T03:59:40.690Z,7.00
2018-01-28T04:02:07.022Z,8.40
2018-01-28T04:04:34.242Z,6.50
2018-01-28T04:07:01.295Z,6.13
2018-01-28T04:09:28.371Z,6.40
2018-01-28T04:11:54.691Z,6.23
2018-01-28T04:14:21.813Z,8.40
2018-01-28T04:16:48.162Z,6.00
2018-01-28T04:19:14.531Z,7.70
2018-01-28T04:21:41.643Z,5.00
2018-01-28T04:24:07.991Z,5.23
2018-01-28T04:26:34.364Z,5.87
2018-01-28T04:29:00.695Z,5.60
2018-01-28T04:31:28.530Z,3.90
2018-01-28T04:33:54.869Z,4.50
2018-01-28T04:36:21.219Z,5.63
2018-01-28T04:38:47.612Z,5.10
2018-01-28T04:41:13.978Z,4.87
2018-01-28T04:43:41.055Z,5.83
2018-01-28T04:46:07.422Z,5.40
2018-01-28T04:48:33.742Z,5.60
2018-01-28T04:51:00.098Z,6.20
2018-01-28T04:53:26.450Z,5.13
2018-01-28T04:55:52.800Z,8.43
2018-01-28T04:58:19.142Z,6.37
2018-01-28T05:00:45.527Z,7.67
2018-01-28T05:03:12.622Z,4.87
2018-01-28T05:05:39.007Z,5.93
2018-01-28T05:08:05.905Z,4.67
2018-01-28T05:10:33.007Z,5.63
2018-01-28T05:12:59.469Z,4.73
2018-01-28T05:15:25.775Z,4.30
2018-01-28T05:17:52.415Z,5.43
2018-01-28T05:20:18.810Z,5.23
2018-01-28T05:22:45.162Z,6.00
2018-01-28T05:25:11.482Z,6.57
2018-01-28T05:27:37.851Z,7.63
2018-01-28T05:30:05.615Z,6.90
2018-01-28T05:32:31.970Z,7.37
2018-01-28T05:34:58.311Z,5.47
2018-01-28T05:37:24.730Z,5.10
2018-01-28T05:39:51.095Z,11.53
2018-01-28T05:42:17.447Z,7.37
2018-01-28T05:44:44.587Z,8.90
2018-01-28T05:47:10.915Z,12.03
2018-01-28T05:49:38.022Z,7.70
2018-01-28T05:52:04.812Z,9.83
2018-01-28T05:54:31.224Z,9.73
2018-01-28T05:56:58.329Z,6.67
2018-01-28T05:59:24.686Z,9.43
2018-01-28T06:01:51.062Z,9.80
2018-01-28T06:04:18.166Z,9.83
2018-01-28T06:06:44.546Z,10.20
2018-01-28T06:09:10.898Z,10.70
2018-01-28T06:11:37.990Z,9.80
2018-01-28T06:14:05.012Z,7.10
2018-01-28T06:16:32.114Z,9.03
2018-01-28T06:18:58.475Z,13.93
2018-01-28T06:21:24.811Z,11.67
2018-01-28T06:23:51.214Z,10.10
2018-01-28T06:26:17.587Z,8.90
2018-01-28T06:28:45.007Z,14.03
2018-01-28T06:31:11.362Z,17.30
2018-01-28T06:33:38.473Z,6.77
2018-01-28T06:36:05.326Z,11.70
2018-01-28T06:38:31.659Z,10.70
2018-01-28T06:40:58.025Z,10.70
2018-01-28T06:43:24.383Z,9.60
2018-01-28T06:45:50.740Z,13.20
2018-01-28T06:48:17.123Z,10.63
2018-01-28T06:50:44.508Z,12.40
2018-01-28T06:53:10.932Z,10.83
2018-01-28T06:55:37.359Z,14.67
2018-01-28T06:58:04.165Z,14.00
2018-01-28T07:00:30.682Z,12.43
2018-01-28T07:02:57.265Z,14.67
2018-01-28T07:05:24.519Z,14.67
2018-01-28T07:07:51.893Z,16.40
2018-01-28T07:10:18.438Z,14.80
2018-01-28T07:12:45.010Z,13.77
2018-01-28T07:15:11.711Z,13.53
2018-01-28T07:17:39.133Z,21.50
2018-01-28T07:20:06.042Z,15.93
2018-01-28T07:22:32.730Z,13.83
2018-01-28T07:24:59.325Z,17.53
2018-01-28T07:27:25.958Z,22.37
2018-01-28T07:29:52.440Z,18.10
2018-01-28T07:32:19.788Z,21.10
2018-01-28T07:34:46.197Z,15.13
2018-01-28T07:37:12.974Z,32.50
2018-01-28T07:39:39.470Z,17.23
2018-01-28T07:42:06.028Z,19.07
2018-01-28T07:44:32.560Z,21.17
2018-01-28T07:46:59.116Z,20.70
2018-01-28T07:49:25.622Z,30.13
2018-01-28T07:51:52.927Z,18.40
2018-01-28T07:54:19.518Z,22.20
2018-01-28T07:56:46.012Z,24.40
2018-01-28T07:59:12.408Z,22.43
2018-01-28T08:01:38.936Z,17.40
2018-01-28T08:04:05.433Z,25.57
2018-01-28T08:06:32.970Z,38.47
2018-01-28T08:08:59.519Z,30.77
2018-01-28T08:14:42.636Z,30.07
2018-01-28T08:17:09.555Z,29.07
2018-01-28T08:19:36.151Z,24.53
2018-01-28T08:22:04.257Z,23.17
2018-01-28T08:24:30.941Z,24.60
2018-01-28T08:27:02.505Z,23.70
2018-01-28T08:29:32.377Z,23.80
2018-01-28T08:31:59.348Z,25.53
2018-01-28T08:34:26.105Z,21.07
2018-01-28T08:36:53.413Z,26.03
2018-01-28T08:39:20.005Z,29.93
2018-01-28T08:41:46.762Z,22.23
2018-01-28T08:44:13.354Z,33.47
2018-01-28T08:46:40.783Z,29.13
2018-01-28T08:49:10.215Z,23.83
2018-01-28T08:51:37.555Z,30.53
2018-01-28T08:54:04.793Z,21.00
2018-01-28T08:56:31.715Z,24.50
2018-01-28T08:58:58.289Z,21.23
2018-01-28T09:01:24.844Z,26.53
2018-01-28T09:03:51.350Z,25.17
2018-01-28T09:06:18.610Z,26.07
2018-01-28T09:08:45.261Z,27.60
2018-01-28T09:11:12.579Z,24.43
2018-01-28T09:13:39.954Z,26.67
2018-01-28T09:16:07.485Z,26.97
2018-01-28T09:18:34.073Z,25.57
2018-01-28T09:21:01.293Z,23.97
2018-01-28T09:23:27.854Z,19.77
2018-01-28T09:25:54.709Z,23.53
2018-01-28T09:28:21.254Z,24.23
2018-01-28T09:30:48.661Z,22.67
2018-01-28T09:33:15.834Z,23.63
2018-01-28T09:35:43.114Z,30.40
2018-01-28T09:38:11.142Z,20.30
2018-01-28T09:40:38.163Z,18.27
2018-01-28T09:43:04.975Z,19.50
2018-01-28T09:45:31.835Z,19.70
2018-01-28T09:47:59.876Z,21.57
2018-01-28T09:50:27.142Z,18.47
2018-01-28T09:52:54.609Z,17.97
2018-01-28T09:55:22.538Z,20.60
2018-01-28T09:57:49.201Z,19.70
2018-01-28T10:00:16.038Z,17.00
2018-01-28T10:02:42.593Z,22.90
2018-01-28T10:05:09.203Z,23.33
2018-01-28T10:07:36.805Z,23.53
2018-01-28T10:10:04.212Z,22.53
2018-01-28T10:12:31.474Z,18.50
2018-01-28T10:14:58.013Z,27.60
2018-01-28T10:17:25.370Z,22.83
2018-01-28T10:19:51.909Z,16.30
2018-01-28T10:22:18.341Z,28.27
2018-01-28T10:24:44.850Z,15.67
2018-01-28T10:27:11.661Z,21.67
2018-01-28T10:29:39.478Z,21.90
2018-01-28T10:32:06.625Z,16.60
2018-01-28T10:34:33.981Z,21.53
2018-01-28T10:37:01.345Z,19.20
2018-01-28T10:39:28.047Z,20.77
2018-01-28T10:41:54.586Z,19.93
2018-01-28T10:44:21.302Z,19.03
2018-01-28T10:46:48.705Z,22.60
2018-01-28T10:49:15.433Z,19.23
2018-01-28T10:51:43.361Z,23.30
2018-01-28T10:54:11.518Z,19.17
2018-01-28T10:56:38.139Z,15.37
2018-01-28T10:59:05.486Z,14.87
2018-01-28T11:01:32.737Z,18.90
2018-01-28T11:03:59.387Z,34.83
2018-01-28T11:06:25.914Z,16.13
2018-01-28T11:08:52.684Z,14.33
2018-01-28T11:11:19.188Z,17.80
2018-01-28T11:13:45.818Z,16.80
2018-01-28T11:16:12.459Z,22.40
2018-01-28T11:18:39.903Z,16.20
2018-01-28T11:21:06.470Z,15.97
2018-01-28T11:23:33.237Z,16.13
2018-01-28T11:25:59.809Z,16.67
2018-01-28T11:28:26.367Z,19.33
2018-01-28T11:30:53.169Z,14.33
2018-01-28T11:33:19.798Z,19.83
2018-01-28T11:35:46.376Z,15.53
2018-01-28T11:38:12.900Z,12.03
2018-01-28T11:40:39.650Z,14.33
2018-01-28T11:43:06.302Z,13.77
2018-01-28T11:45:32.863Z,15.63
2018-01-28T11:47:59.577Z,16.13
2018-01-28T11:50:26.234Z,12.40
2018-01-28T11:52:53.538Z,14.00
2018-01-28T11:55:20.373Z,14.80
2018-01-28T11:57:47.649Z,13.67
2018-01-28T12:00:14.711Z,13.13
2018-01-28T12:02:41.671Z,16.80
2018-01-28T12:05:08.302Z,24.10
2018-01-28T12:07:34.913Z,15.50
2018-01-28T12:10:01.929Z,18.70
2018-01-28T12:12:29.250Z,17.60
2018-01-28T12:14:55.736Z,12.73
2018-01-28T12:17:23.044Z,13.23
2018-01-28T12:19:50.348Z,14.97
2018-01-28T12:22:17.880Z,15.23
2018-01-28T12:24:46.156Z,12.20
2018-01-28T12:27:12.753Z,12.90
2018-01-28T12:29:39.697Z,20.80
2018-01-28T12:32:06.945Z,13.47
2018-01-28T12:34:34.402Z,17.70
2018-01-28T12:37:01.162Z,14.87
2018-01-28T12:39:27.714Z,14.27
2018-01-28T12:41:54.224Z,12.70
2018-01-28T12:44:20.815Z,14.57
2018-01-28T12:46:47.702Z,10.30
2018-01-28T12:49:14.756Z,11.90
2018-01-28T12:51:42.100Z,12.83
2018-01-28T12:54:09.425Z,10.57
2018-01-28T12:56:36.072Z,13.23
2018-01-28T12:59:02.659Z,16.00
2018-01-28T13:01:29.192Z,9.37
2018-01-28T13:03:55.856Z,14.40
2018-01-28T13:06:22.442Z,11.10
2018-01-28T13:08:48.992Z,9.60
2018-01-28T13:11:15.558Z,11.10
2018-01-28T13:13:42.915Z,9.93
2018-01-28T13:16:09.462Z,14.97
2018-01-28T13:18:36.005Z,8.40
2018-01-28T13:21:03.688Z,6.87
2018-01-28T13:23:31.122Z,15.40
2018-01-28T13:25:57.763Z,7.87
2018-01-28T13:28:24.379Z,9.93
2018-01-28T13:30:51.081Z,15.03
2018-01-28T13:33:17.766Z,6.87
2018-01-28T13:35:44.225Z,8.17
2018-01-28T13:38:10.709Z,13.63
2018-01-28T13:40:37.384Z,16.60
2018-01-28T13:43:03.931Z,10.10
2018-01-28T13:45:30.530Z,8.10
2018-01-28T13:47:57.939Z,10.10
2018-01-28T13:50:25.258Z,6.97
2018-01-28T13:52:52.069Z,7.43
2018-01-28T13:55:18.665Z,7.03
2018-01-28T13:57:45.212Z,12.30
2018-01-28T14:00:12.457Z,4.67
2018-01-28T14:02:39.081Z,9.73
2018-01-28T14:05:05.812Z,7.70
2018-01-28T14:07:32.255Z,10.77
2018-01-28T14:09:58.786Z,6.17
2018-01-28T14:12:25.444Z,14.63
2018-01-28T14:14:51.986Z,10.13
2018-01-28T14:17:18.570Z,15.43
2018-01-28T14:19:45.266Z,9.20
2018-01-28T14:22:11.846Z,8.30
2018-01-28T14:24:39.008Z,10.27
2018-01-28T14:27:05.542Z,16.07
2018-01-28T14:29:32.194Z,10.90
2018-01-28T14:31:58.794Z,17.67
2018-01-28T14:34:25.318Z,13.07
2018-01-28T14:36:51.915Z,17.33
2018-01-28T14:39:18.505Z,15.60
2018-01-28T14:41:45.120Z,18.20
2018-01-28T14:44:11.715Z,12.83
2018-01-28T14:46:38.354Z,10.13
2018-01-28T14:49:05.200Z,13.23
2018-01-28T14:51:32.729Z,19.83
2018-01-28T14:53:59.274Z,14.07
2018-01-28T14:56:25.886Z,14.90
2018-01-28T14:58:52.553Z,11.87
2018-01-28T15:01:19.170Z,18.60
2018-01-28T15:03:45.810Z,14.87
2018-01-28T15:06:12.371Z,13.97
2018-01-28T15:08:39.732Z,10.10
2018-01-28T15:11:06.457Z,13.20
2018-01-28T15:13:34.517Z,11.10
2018-01-28T15:16:01.091Z,13.77
2018-01-28T15:18:27.848Z,11.60
2018-01-28T15:20:54.449Z,12.30
2018-01-28T15:23:21.773Z,11.87
2018-01-28T15:25:48.270Z,9.47
2018-01-28T15:28:14.868Z,9.03
2018-01-28T15:30:41.469Z,7.63
2018-01-28T15:33:08.154Z,15.50
2018-01-28T15:35:34.789Z,9.67
2018-01-28T15:38:01.375Z,7.70
2018-01-28T15:40:27.941Z,7.77
2018-01-28T15:42:54.578Z,9.77
2018-01-28T15:45:21.975Z,9.10
2018-01-28T15:47:49.308Z,10.50
2018-01-28T15:50:15.853Z,9.33
2018-01-28T15:52:42.501Z,8.23
2018-01-28T15:55:09.125Z,12.43
2018-01-28T15:57:36.181Z,9.40
2018-01-28T16:00:03.436Z,18.57
2018-01-28T16:02:30.085Z,11.63
2018-01-28T16:04:56.704Z,11.60
2018-01-28T16:07:23.687Z,18.57
2018-01-28T16:09:50.299Z,9.40
2018-01-28T16:12:16.811Z,18.23
2018-01-28T16:14:43.616Z,13.50
2018-01-28T16:17:11.681Z,14.47
2018-01-28T16:19:38.604Z,15.60
2018-01-28T16:22:05.912Z,20.70
2018-01-28T16:24:32.628Z,16.03
2018-01-28T16:27:00.415Z,10.93
2018-01-28T16:29:27.125Z,11.70
2018-01-28T16:31:54.648Z,21.27
2018-01-28T16:34:22.116Z,18.50
2018-01-28T16:36:48.685Z,8.70
2018-01-28T16:39:15.262Z,13.07
2018-01-28T16:41:41.925Z,15.70
2018-01-28T16:44:08.438Z,19.60
2018-01-28T16:46:36.087Z,19.23
2018-01-28T16:49:03.103Z,12.53
2018-01-28T16:51:30.433Z,21.50
2018-01-28T16:53:56.856Z,19.57
2018-01-28T16:56:24.110Z,13.87
2018-01-28T16:58:51.385Z,15.57
2018-01-28T17:01:19.379Z,12.93
2018-01-28T17:03:45.886Z,16.07
2018-01-28T17:06:12.425Z,11.00
2018-01-28T17:08:38.833Z,17.90
2018-01-28T17:11:05.633Z,18.00
2018-01-28T17:13:32.144Z,13.67
2018-01-28T17:15:58.637Z,17.63
2018-01-28T17:18:25.990Z,17.10
2018-01-28T17:20:52.468Z,16.10
2018-01-28T17:23:19.683Z,12.27
2018-01-28T17:25:46.190Z,14.10
2018-01-28T17:28:12.717Z,14.10
2018-01-28T17:30:39.993Z,21.13
2018-01-28T17:33:07.205Z,13.10
2018-01-28T17:35:40.513Z,15.07
2018-01-28T17:38:08.198Z,11.80
2018-01-28T17:40:34.745Z,11.23
2018-01-28T17:43:01.184Z,15.23
2018-01-28T17:45:28.521Z,9.40
2018-01-28T17:47:55.076Z,11.50
2018-01-28T17:50:21.531Z,11.43
2018-01-28T17:52:48.031Z,13.60
2018-01-28T17:55:14.658Z,19.87
2018-01-28T17:57:41.907Z,11.43
2018-01-28T18:00:09.103Z,9.87
2018-01-28T18:02:35.797Z,9.73
2018-01-28T18:05:02.368Z,10.67
2018-01-28T18:07:28.898Z,10.40
2018-01-28T18:09:55.451Z,15.03
2018-01-28T18:12:21.858Z,11.67
2018-01-28T18:14:48.367Z,8.27
2018-01-28T18:17:15.546Z,11.50
2018-01-28T18:19:42.770Z,12.67
2018-01-28T18:22:09.217Z,17.53
2018-01-28T18:24:36.582Z,16.03
2018-01-28T18:27:03.358Z,14.07
2018-01-28T18:29:29.833Z,9.10
2018-01-28T18:31:56.337Z,8.40
2018-01-28T18:34:22.940Z,16.70
2018-01-28T18:36:49.424Z,12.43
2018-01-28T18:39:15.941Z,19.53
2018-01-28T18:41:42.467Z,15.60
2018-01-28T18:44:08.936Z,10.33
2018-01-28T18:46:35.377Z,11.33
2018-01-28T18:49:02.063Z,15.53
2018-01-28T18:51:28.554Z,9.83
2018-01-28T18:53:54.945Z,15.37
2018-01-28T18:56:21.564Z,13.40
2018-01-28T18:58:48.016Z,8.90
2018-01-28T19:01:14.536Z,12.77
2018-01-28T19:03:41.049Z,17.53
2018-01-28T19:06:08.247Z,9.50
2018-01-28T19:08:34.809Z,13.83
2018-01-28T19:11:01.317Z,13.40
2018-01-28T19:13:27.889Z,18.07
2018-01-28T19:15:54.419Z,13.67
2018-01-28T19:18:22.646Z,9.23
2018-01-28T19:20:49.233Z,9.00
2018-01-28T19:23:15.797Z,9.70
2018-01-28T19:25:42.233Z,7.67
2018-01-28T19:28:08.693Z,8.00
2018-01-28T19:30:35.160Z,6.90
2018-01-28T19:33:01.694Z,7.83
2018-01-28T19:35:28.967Z,10.53
2018-01-28T19:37:56.113Z,7.90
2018-01-28T19:40:23.249Z,8.10
2018-01-28T19:42:49.698Z,9.27
2018-01-28T19:45:16.263Z,7.80
2018-01-28T19:47:42.645Z,7.20
2018-01-28T19:50:09.086Z,8.83
2018-01-28T19:52:35.744Z,8.40
2018-01-28T19:55:02.247Z,6.67
2018-01-28T19:57:29.056Z,7.00
2018-01-28T19:59:55.508Z,6.00
2018-01-28T20:02:21.968Z,6.80
2018-01-28T20:04:48.753Z,8.50
2018-01-28T20:07:15.961Z,6.03
2018-01-28T20:09:42.450Z,5.63
2018-01-28T20:12:08.930Z,6.83
2018-01-28T20:14:35.455Z,5.60
2018-01-28T20:17:02.005Z,9.43
2018-01-28T20:19:28.502Z,5.33
2018-01-28T20:21:54.964Z,5.67
2018-01-28T20:24:22.810Z,6.50
2018-01-28T20:26:49.544Z,5.67
2018-01-28T20:29:16.041Z,6.43
2018-01-28T20:31:43.261Z,4.93
2018-01-28T20:34:09.756Z,6.50
2018-01-28T20:36:36.271Z,6.20
2018-01-28T20:39:03.151Z,6.00
2018-01-28T20:41:29.735Z,9.03
2018-01-28T20:43:57.224Z,6.33
2018-01-28T20:46:23.700Z,6.30
2018-01-28T20:48:51.284Z,5.50
2018-01-28T20:51:18.583Z,4.53
2018-01-28T20:53:49.066Z,10.33
2018-01-28T20:56:15.611Z,6.73
2018-01-28T20:58:42.413Z,5.70
2018-01-28T21:01:10.680Z,5.40
2018-01-28T21:03:37.225Z,6.10
2018-01-28T21:06:04.388Z,6.43
2018-01-28T21:08:31.040Z,6.30
2018-01-28T21:10:57.683Z,5.60
2018-01-28T21:13:24.179Z,5.53
2018-01-28T21:15:50.717Z,6.60
2018-01-28T21:18:17.192Z,6.27
2018-01-28T21:20:43.812Z,6.90
2018-01-28T21:23:10.403Z,5.93
2018-01-28T21:25:36.924Z,6.10
2018-01-28T21:28:04.122Z,5.60
2018-01-28T21:30:30.705Z,6.67
2018-01-28T21:32:57.911Z,6.90
2018-01-28T21:35:25.109Z,6.73
2018-01-28T21:37:52.362Z,6.97
2018-01-28T21:40:18.850Z,6.93
2018-01-28T21:42:46.040Z,9.10
2018-01-28T21:45:12.528Z,10.97
2018-01-28T21:47:39.890Z,8.30
2018-01-28T21:50:07.154Z,7.80
2018-01-28T21:52:33.756Z,7.37
2018-01-28T21:55:00.242Z,7.77
2018-01-28T21:57:26.750Z,6.73
2018-01-28T21:59:53.300Z,7.13
2018-01-28T22:02:19.994Z,4.77
2018-01-28T22:04:46.406Z,4.87
2018-01-28T22:07:13.198Z,4.90
2018-01-28T22:09:40.009Z,5.77
2018-01-28T22:12:06.994Z,3.17
2018-01-28T22:14:33.453Z,2.90
2018-01-28T22:17:00.044Z,3.20
2018-01-28T22:19:27.260Z,3.00
2018-01-28T22:21:55.226Z,3.20
2018-01-28T22:24:21.639Z,2.60
2018-01-28T22:26:48.303Z,2.87
2018-01-28T22:29:14.801Z,2.23
2018-01-28T22:31:41.314Z,3.00
2018-01-28T22:34:09.325Z,5.13
2018-01-28T22:36:35.773Z,2.70
2018-01-28T22:39:03.522Z,4.37
2018-01-28T22:41:30.074Z,4.63
2018-01-28T22:43:56.488Z,4.43
2018-01-28T22:46:23.022Z,4.80
2018-01-28T22:48:49.488Z,6.27
2018-01-28T22:51:16.047Z,8.83
2018-01-28T22:53:42.513Z,4.27
2018-01-28T22:56:09.293Z,5.27
2018-01-28T22:58:35.798Z,5.43
2018-01-28T23:01:02.655Z,5.17
2018-01-28T23:03:29.096Z,6.20
2018-01-28T23:05:55.541Z,5.30
2018-01-28T23:08:21.985Z,5.50
2018-01-28T23:10:48.414Z,6.93
2018-01-28T23:13:14.889Z,4.23
2018-01-28T23:15:41.387Z,3.53
2018-01-28T23:18:08.183Z,4.20
2018-01-28T23:20:34.608Z,4.10
2018-01-28T23:23:01.098Z,4.23
2018-01-28T23:25:28.270Z,3.77
2018-01-28T23:27:55.476Z,3.80
2018-01-28T23:30:21.958Z,3.70
2018-01-28T23:32:48.398Z,2.70
2018-01-28T23:35:14.797Z,2.70
2018-01-28T23:37:41.273Z,6.37
2018-01-28T23:40:08.222Z,3.80
2018-01-28T23:42:34.710Z,4.53
2018-01-28T23:45:01.161Z,4.50
2018-01-28T23:47:28.393Z,4.33
2018-01-28T23:49:56.345Z,5.03
2018-01-28T23:52:22.810Z,4.40
2018-01-28T23:54:49.231Z,3.90
2018-01-28T23:57:15.673Z,3.37
2018-01-28T23:59:42.134Z,9.03
